sensor_id;sensor_type;location;lat;lon;timestamp;P1;durP1;ratioP1;P2;durP2;ratioP2
76063;SDS011;64762;52.006;8.424;2023-03-18T00:02:21;7.68;;;3.00;;
76063;SDS011;64762;52.006;8.424;2023-03-18T00:04:46;7.53;;;3.05;;
76063;SDS011;64762;52.006;8.424;2023-03-18T00:07:12;8.27;;;3.10;;
76063;SDS011;64762;52.006;8.424;2023-03-18T00:09:37;9.32;;;3.53;;
76063;SDS011;64762;52.006;8.424;2023-03-18T00:12:03;10.30;;;3.45;;
76063;SDS011;64762;52.006;8.424;2023-03-18T00:14:28;6.45;;;3.25;;
76063;SDS011;64762;52.006;8.424;2023-03-18T00:16:54;12.73;;;3.27;;
76063;SDS011;64762;52.006;8.424;2023-03-18T00:19:20;7.70;;;3.50;;
76063;SDS011;64762;52.006;8.424;2023-03-18T00:21:45;8.55;;;3.50;;
76063;SDS011;64762;52.006;8.424;2023-03-18T00:24:10;7.40;;;3.80;;
76063;SDS011;64762;52.006;8.424;2023-03-18T00:26:36;9.10;;;3.10;;
76063;SDS011;64762;52.006;8.424;2023-03-18T00:29:02;7.95;;;3.60;;
76063;SDS011;64762;52.006;8.424;2023-03-18T00:31:27;6.85;;;3.35;;
76063;SDS011;64762;52.006;8.424;2023-03-18T00:33:53;10.93;;;4.07;;
76063;SDS011;64762;52.006;8.424;2023-03-18T00:36:19;10.67;;;3.50;;
76063;SDS011;64762;52.006;8.424;2023-03-18T00:38:49;9.13;;;3.67;;
76063;SDS011;64762;52.006;8.424;2023-03-18T00:41:15;11.95;;;4.22;;
76063;SDS011;64762;52.006;8.424;2023-03-18T00:43:44;11.47;;;4.50;;
76063;SDS011;64762;52.006;8.424;2023-03-18T00:46:16;12.55;;;3.85;;
76063;SDS011;64762;52.006;8.424;2023-03-18T00:48:43;9.07;;;4.40;;
76063;SDS011;64762;52.006;8.424;2023-03-18T00:51:09;10.70;;;4.40;;
76063;SDS011;64762;52.006;8.424;2023-03-18T00:53:39;14.55;;;4.32;;
76063;SDS011;64762;52.006;8.424;2023-03-18T00:56:09;12.85;;;4.20;;
76063;SDS011;64762;52.006;8.424;2023-03-18T00:58:34;10.32;;;4.10;;
76063;SDS011;64762;52.006;8.424;2023-03-18T01:01:01;8.48;;;4.03;;
76063;SDS011;64762;52.006;8.424;2023-03-18T01:03:27;12.40;;;4.70;;
76063;SDS011;64762;52.006;8.424;2023-03-18T01:05:52;11.50;;;4.77;;
76063;SDS011;64762;52.006;8.424;2023-03-18T01:08:18;8.53;;;4.67;;
76063;SDS011;64762;52.006;8.424;2023-03-18T01:10:45;11.93;;;4.43;;
76063;SDS011;64762;52.006;8.424;2023-03-18T01:13:12;12.27;;;4.65;;
76063;SDS011;64762;52.006;8.424;2023-03-18T01:15:37;16.23;;;4.23;;
76063;SDS011;64762;52.006;8.424;2023-03-18T01:18:02;9.77;;;4.00;;
76063;SDS011;64762;52.006;8.424;2023-03-18T01:20:28;10.90;;;4.10;;
76063;SDS011;64762;52.006;8.424;2023-03-18T01:22:54;11.40;;;4.65;;
76063;SDS011;64762;52.006;8.424;2023-03-18T01:25:20;10.45;;;4.10;;
76063;SDS011;64762;52.006;8.424;2023-03-18T01:27:46;11.63;;;4.63;;
76063;SDS011;64762;52.006;8.424;2023-03-18T01:30:11;11.43;;;4.23;;
76063;SDS011;64762;52.006;8.424;2023-03-18T01:32:37;13.50;;;5.00;;
76063;SDS011;64762;52.006;8.424;2023-03-18T01:35:03;12.17;;;5.00;;
76063;SDS011;64762;52.006;8.424;2023-03-18T01:37:28;10.35;;;4.40;;
76063;SDS011;64762;52.006;8.424;2023-03-18T01:39:55;13.50;;;4.80;;
76063;SDS011;64762;52.006;8.424;2023-03-18T01:42:20;10.33;;;5.23;;
76063;SDS011;64762;52.006;8.424;2023-03-18T01:44:46;11.43;;;4.93;;
76063;SDS011;64762;52.006;8.424;2023-03-18T01:47:12;9.77;;;5.05;;
76063;SDS011;64762;52.006;8.424;2023-03-18T01:49:42;10.55;;;4.55;;
76063;SDS011;64762;52.006;8.424;2023-03-18T01:52:12;12.18;;;4.50;;
76063;SDS011;64762;52.006;8.424;2023-03-18T01:54:45;13.90;;;4.95;;
76063;SDS011;64762;52.006;8.424;2023-03-18T01:57:13;10.30;;;4.60;;
76063;SDS011;64762;52.006;8.424;2023-03-18T01:59:41;11.15;;;5.32;;
76063;SDS011;64762;52.006;8.424;2023-03-18T02:02:08;15.35;;;6.03;;
76063;SDS011;64762;52.006;8.424;2023-03-18T02:04:38;15.30;;;5.40;;
76063;SDS011;64762;52.006;8.424;2023-03-18T02:07:42;10.07;;;5.03;;
76063;SDS011;64762;52.006;8.424;2023-03-18T02:10:07;11.48;;;5.15;;
76063;SDS011;64762;52.006;8.424;2023-03-18T02:12:36;15.80;;;5.45;;
76063;SDS011;64762;52.006;8.424;2023-03-18T02:15:05;11.38;;;5.38;;
76063;SDS011;64762;52.006;8.424;2023-03-18T02:17:35;14.07;;;5.70;;
76063;SDS011;64762;52.006;8.424;2023-03-18T02:22:51;11.20;;;5.20;;
76063;SDS011;64762;52.006;8.424;2023-03-18T02:25:45;13.95;;;6.20;;
76063;SDS011;64762;52.006;8.424;2023-03-18T02:28:15;12.60;;;5.50;;
76063;SDS011;64762;52.006;8.424;2023-03-18T02:30:47;14.48;;;6.70;;
76063;SDS011;64762;52.006;8.424;2023-03-18T02:33:16;10.52;;;5.47;;
76063;SDS011;64762;52.006;8.424;2023-03-18T02:35:43;16.27;;;6.18;;
76063;SDS011;64762;52.006;8.424;2023-03-18T02:38:11;11.10;;;5.60;;
76063;SDS011;64762;52.006;8.424;2023-03-18T02:40:37;12.83;;;6.20;;
76063;SDS011;64762;52.006;8.424;2023-03-18T02:46:16;18.80;;;6.38;;
76063;SDS011;64762;52.006;8.424;2023-03-18T02:48:47;12.68;;;7.15;;
76063;SDS011;64762;52.006;8.424;2023-03-18T02:51:14;15.55;;;6.43;;
76063;SDS011;64762;52.006;8.424;2023-03-18T02:53:40;11.38;;;5.88;;
76063;SDS011;64762;52.006;8.424;2023-03-18T02:56:06;16.08;;;6.03;;
76063;SDS011;64762;52.006;8.424;2023-03-18T02:58:32;11.13;;;6.10;;
76063;SDS011;64762;52.006;8.424;2023-03-18T03:00:57;15.18;;;6.95;;
76063;SDS011;64762;52.006;8.424;2023-03-18T03:03:24;13.38;;;6.57;;
76063;SDS011;64762;52.006;8.424;2023-03-18T03:05:50;15.90;;;5.93;;
76063;SDS011;64762;52.006;8.424;2023-03-18T03:08:16;15.80;;;6.60;;
76063;SDS011;64762;52.006;8.424;2023-03-18T03:10:41;16.80;;;6.00;;
76063;SDS011;64762;52.006;8.424;2023-03-18T03:13:07;12.93;;;6.00;;
76063;SDS011;64762;52.006;8.424;2023-03-18T03:15:34;11.65;;;5.80;;
76063;SDS011;64762;52.006;8.424;2023-03-18T03:18:00;13.32;;;6.65;;
76063;SDS011;64762;52.006;8.424;2023-03-18T03:20:26;12.03;;;5.77;;
76063;SDS011;64762;52.006;8.424;2023-03-18T03:22:52;15.60;;;6.65;;
76063;SDS011;64762;52.006;8.424;2023-03-18T03:25:18;11.90;;;5.68;;
76063;SDS011;64762;52.006;8.424;2023-03-18T03:27:43;11.75;;;5.85;;
76063;SDS011;64762;52.006;8.424;2023-03-18T03:30:09;14.03;;;6.43;;
76063;SDS011;64762;52.006;8.424;2023-03-18T03:32:37;13.50;;;6.60;;
76063;SDS011;64762;52.006;8.424;2023-03-18T03:35:04;15.90;;;6.05;;
76063;SDS011;64762;52.006;8.424;2023-03-18T03:37:31;14.20;;;6.38;;
76063;SDS011;64762;52.006;8.424;2023-03-18T03:39:57;12.77;;;6.32;;
76063;SDS011;64762;52.006;8.424;2023-03-18T03:42:23;12.38;;;6.35;;
76063;SDS011;64762;52.006;8.424;2023-03-18T03:44:49;13.53;;;5.93;;
76063;SDS011;64762;52.006;8.424;2023-03-18T03:47:14;15.25;;;5.82;;
76063;SDS011;64762;52.006;8.424;2023-03-18T03:49:40;11.33;;;5.70;;
76063;SDS011;64762;52.006;8.424;2023-03-18T03:52:05;15.93;;;7.07;;
76063;SDS011;64762;52.006;8.424;2023-03-18T03:54:31;14.70;;;6.55;;
76063;SDS011;64762;52.006;8.424;2023-03-18T03:56:56;14.30;;;5.93;;
76063;SDS011;64762;52.006;8.424;2023-03-18T03:59:22;12.63;;;6.13;;
76063;SDS011;64762;52.006;8.424;2023-03-18T04:01:47;17.13;;;6.27;;
76063;SDS011;64762;52.006;8.424;2023-03-18T04:04:12;14.13;;;6.20;;
76063;SDS011;64762;52.006;8.424;2023-03-18T04:06:38;18.57;;;6.63;;
76063;SDS011;64762;52.006;8.424;2023-03-18T04:09:03;14.50;;;6.90;;
76063;SDS011;64762;52.006;8.424;2023-03-18T04:11:28;14.25;;;6.38;;
76063;SDS011;64762;52.006;8.424;2023-03-18T04:13:54;16.08;;;6.25;;
76063;SDS011;64762;52.006;8.424;2023-03-18T04:16:19;12.40;;;6.20;;
76063;SDS011;64762;52.006;8.424;2023-03-18T04:18:45;13.75;;;6.13;;
76063;SDS011;64762;52.006;8.424;2023-03-18T04:21:10;14.80;;;6.28;;
76063;SDS011;64762;52.006;8.424;2023-03-18T04:23:36;17.77;;;7.30;;
76063;SDS011;64762;52.006;8.424;2023-03-18T04:26:01;18.83;;;7.15;;
76063;SDS011;64762;52.006;8.424;2023-03-18T04:28:26;20.50;;;7.60;;
76063;SDS011;64762;52.006;8.424;2023-03-18T04:30:52;16.30;;;6.67;;
76063;SDS011;64762;52.006;8.424;2023-03-18T04:33:17;20.27;;;7.68;;
76063;SDS011;64762;52.006;8.424;2023-03-18T04:35:43;18.52;;;8.55;;
76063;SDS011;64762;52.006;8.424;2023-03-18T04:38:09;17.58;;;6.93;;
76063;SDS011;64762;52.006;8.424;2023-03-18T04:40:34;19.83;;;7.07;;
76063;SDS011;64762;52.006;8.424;2023-03-18T04:43:00;15.70;;;7.23;;
76063;SDS011;64762;52.006;8.424;2023-03-18T04:45:25;16.67;;;7.57;;
76063;SDS011;64762;52.006;8.424;2023-03-18T04:47:51;13.23;;;7.07;;
76063;SDS011;64762;52.006;8.424;2023-03-18T04:50:17;15.15;;;6.10;;
76063;SDS011;64762;52.006;8.424;2023-03-18T04:52:43;20.85;;;7.28;;
76063;SDS011;64762;52.006;8.424;2023-03-18T04:55:09;18.23;;;6.90;;
76063;SDS011;64762;52.006;8.424;2023-03-18T04:57:35;20.08;;;8.18;;
76063;SDS011;64762;52.006;8.424;2023-03-18T05:00:03;21.02;;;7.85;;
76063;SDS011;64762;52.006;8.424;2023-03-18T05:04:57;13.83;;;6.50;;
76063;SDS011;64762;52.006;8.424;2023-03-18T05:07:24;14.65;;;6.57;;
76063;SDS011;64762;52.006;8.424;2023-03-18T05:09:50;12.82;;;6.57;;
76063;SDS011;64762;52.006;8.424;2023-03-18T05:12:15;15.73;;;7.87;;
76063;SDS011;64762;52.006;8.424;2023-03-18T05:14:41;15.18;;;7.00;;
76063;SDS011;64762;52.006;8.424;2023-03-18T05:17:07;14.57;;;6.85;;
76063;SDS011;64762;52.006;8.424;2023-03-18T05:19:39;17.58;;;7.60;;
76063;SDS011;64762;52.006;8.424;2023-03-18T05:22:08;12.93;;;6.95;;
76063;SDS011;64762;52.006;8.424;2023-03-18T05:24:34;17.25;;;6.90;;
76063;SDS011;64762;52.006;8.424;2023-03-18T05:26:59;18.45;;;6.97;;
76063;SDS011;64762;52.006;8.424;2023-03-18T05:29:25;18.02;;;6.20;;
76063;SDS011;64762;52.006;8.424;2023-03-18T05:31:51;13.75;;;6.50;;
76063;SDS011;64762;52.006;8.424;2023-03-18T05:34:16;14.25;;;6.28;;
76063;SDS011;64762;52.006;8.424;2023-03-18T05:36:42;13.73;;;6.07;;
76063;SDS011;64762;52.006;8.424;2023-03-18T05:39:08;14.43;;;6.55;;
76063;SDS011;64762;52.006;8.424;2023-03-18T05:41:33;17.47;;;6.37;;
76063;SDS011;64762;52.006;8.424;2023-03-18T05:43:58;19.40;;;6.67;;
76063;SDS011;64762;52.006;8.424;2023-03-18T05:46:24;15.20;;;6.47;;
76063;SDS011;64762;52.006;8.424;2023-03-18T05:48:49;22.17;;;9.68;;
76063;SDS011;64762;52.006;8.424;2023-03-18T05:51:15;21.08;;;10.10;;
76063;SDS011;64762;52.006;8.424;2023-03-18T05:53:40;22.83;;;11.32;;
76063;SDS011;64762;52.006;8.424;2023-03-18T05:56:06;14.80;;;7.40;;
76063;SDS011;64762;52.006;8.424;2023-03-18T05:58:31;15.77;;;7.22;;
76063;SDS011;64762;52.006;8.424;2023-03-18T06:00:58;20.42;;;10.57;;
76063;SDS011;64762;52.006;8.424;2023-03-18T06:03:24;20.48;;;9.43;;
76063;SDS011;64762;52.006;8.424;2023-03-18T06:05:51;22.85;;;9.00;;
76063;SDS011;64762;52.006;8.424;2023-03-18T06:08:16;17.13;;;6.75;;
76063;SDS011;64762;52.006;8.424;2023-03-18T06:10:42;13.50;;;6.60;;
76063;SDS011;64762;52.006;8.424;2023-03-18T06:13:08;15.73;;;6.97;;
76063;SDS011;64762;52.006;8.424;2023-03-18T06:15:35;15.57;;;7.13;;
76063;SDS011;64762;52.006;8.424;2023-03-18T06:18:00;18.98;;;8.63;;
76063;SDS011;64762;52.006;8.424;2023-03-18T06:20:26;14.45;;;6.63;;
76063;SDS011;64762;52.006;8.424;2023-03-18T06:22:51;18.33;;;6.80;;
76063;SDS011;64762;52.006;8.424;2023-03-18T06:25:18;17.70;;;7.50;;
76063;SDS011;64762;52.006;8.424;2023-03-18T06:27:44;15.27;;;7.40;;
76063;SDS011;64762;52.006;8.424;2023-03-18T06:30:10;13.18;;;7.32;;
76063;SDS011;64762;52.006;8.424;2023-03-18T06:32:37;22.42;;;8.25;;
76063;SDS011;64762;52.006;8.424;2023-03-18T06:35:04;18.67;;;8.32;;
76063;SDS011;64762;52.006;8.424;2023-03-18T06:37:29;17.20;;;7.38;;
76063;SDS011;64762;52.006;8.424;2023-03-18T06:39:55;14.00;;;6.97;;
76063;SDS011;64762;52.006;8.424;2023-03-18T06:42:20;11.57;;;6.33;;
76063;SDS011;64762;52.006;8.424;2023-03-18T06:44:45;14.47;;;7.23;;
76063;SDS011;64762;52.006;8.424;2023-03-18T06:47:16;14.60;;;6.75;;
76063;SDS011;64762;52.006;8.424;2023-03-18T06:49:42;15.43;;;7.82;;
76063;SDS011;64762;52.006;8.424;2023-03-18T06:52:08;14.73;;;8.73;;
76063;SDS011;64762;52.006;8.424;2023-03-18T06:54:33;15.57;;;6.37;;
76063;SDS011;64762;52.006;8.424;2023-03-18T06:56:59;12.17;;;6.63;;
76063;SDS011;64762;52.006;8.424;2023-03-18T06:59:25;16.05;;;7.50;;
76063;SDS011;64762;52.006;8.424;2023-03-18T07:01:51;18.38;;;7.55;;
76063;SDS011;64762;52.006;8.424;2023-03-18T07:04:16;15.97;;;6.97;;
76063;SDS011;64762;52.006;8.424;2023-03-18T07:06:41;13.57;;;7.60;;
76063;SDS011;64762;52.006;8.424;2023-03-18T07:09:07;13.13;;;6.72;;
76063;SDS011;64762;52.006;8.424;2023-03-18T07:11:35;16.05;;;7.20;;
76063;SDS011;64762;52.006;8.424;2023-03-18T07:14:00;16.60;;;7.23;;
76063;SDS011;64762;52.006;8.424;2023-03-18T07:16:25;15.55;;;6.85;;
76063;SDS011;64762;52.006;8.424;2023-03-18T07:18:51;14.88;;;6.55;;
76063;SDS011;64762;52.006;8.424;2023-03-18T07:21:17;16.77;;;6.75;;
76063;SDS011;64762;52.006;8.424;2023-03-18T07:23:43;13.90;;;6.57;;
76063;SDS011;64762;52.006;8.424;2023-03-18T07:26:09;10.47;;;6.23;;
76063;SDS011;64762;52.006;8.424;2023-03-18T07:28:36;15.07;;;6.40;;
76063;SDS011;64762;52.006;8.424;2023-03-18T07:31:01;15.10;;;6.30;;
76063;SDS011;64762;52.006;8.424;2023-03-18T07:33:27;13.40;;;6.43;;
76063;SDS011;64762;52.006;8.424;2023-03-18T07:35:53;12.50;;;6.43;;
76063;SDS011;64762;52.006;8.424;2023-03-18T07:38:18;12.20;;;5.47;;
76063;SDS011;64762;52.006;8.424;2023-03-18T07:40:43;14.30;;;6.40;;
76063;SDS011;64762;52.006;8.424;2023-03-18T07:43:09;11.48;;;6.20;;
76063;SDS011;64762;52.006;8.424;2023-03-18T07:45:34;14.33;;;5.97;;
76063;SDS011;64762;52.006;8.424;2023-03-18T07:47:59;12.33;;;5.70;;
76063;SDS011;64762;52.006;8.424;2023-03-18T07:50:25;12.47;;;5.17;;
76063;SDS011;64762;52.006;8.424;2023-03-18T07:52:51;11.57;;;5.45;;
76063;SDS011;64762;52.006;8.424;2023-03-18T07:55:17;9.97;;;4.63;;
76063;SDS011;64762;52.006;8.424;2023-03-18T07:57:42;11.37;;;5.17;;
76063;SDS011;64762;52.006;8.424;2023-03-18T08:00:08;9.77;;;4.80;;
76063;SDS011;64762;52.006;8.424;2023-03-18T08:02:35;11.18;;;5.40;;
76063;SDS011;64762;52.006;8.424;2023-03-18T08:05:01;8.65;;;4.53;;
76063;SDS011;64762;52.006;8.424;2023-03-18T08:07:27;10.93;;;4.63;;
76063;SDS011;64762;52.006;8.424;2023-03-18T08:09:53;8.85;;;4.90;;
76063;SDS011;64762;52.006;8.424;2023-03-18T08:12:19;12.23;;;5.20;;
76063;SDS011;64762;52.006;8.424;2023-03-18T08:14:44;10.97;;;4.70;;
76063;SDS011;64762;52.006;8.424;2023-03-18T08:17:10;10.00;;;4.50;;
76063;SDS011;64762;52.006;8.424;2023-03-18T08:19:35;10.57;;;4.63;;
76063;SDS011;64762;52.006;8.424;2023-03-18T08:22:01;13.05;;;4.88;;
76063;SDS011;64762;52.006;8.424;2023-03-18T08:24:26;12.87;;;5.17;;
76063;SDS011;64762;52.006;8.424;2023-03-18T08:26:51;8.30;;;4.80;;
76063;SDS011;64762;52.006;8.424;2023-03-18T08:29:17;8.07;;;4.43;;
76063;SDS011;64762;52.006;8.424;2023-03-18T08:31:42;11.33;;;4.33;;
76063;SDS011;64762;52.006;8.424;2023-03-18T08:34:07;13.03;;;4.77;;
76063;SDS011;64762;52.006;8.424;2023-03-18T08:36:32;13.33;;;4.80;;
76063;SDS011;64762;52.006;8.424;2023-03-18T08:38:58;8.43;;;4.47;;
76063;SDS011;64762;52.006;8.424;2023-03-18T08:41:24;9.75;;;4.43;;
76063;SDS011;64762;52.006;8.424;2023-03-18T08:43:50;11.32;;;5.03;;
76063;SDS011;64762;52.006;8.424;2023-03-18T08:46:16;10.50;;;4.50;;
76063;SDS011;64762;52.006;8.424;2023-03-18T08:48:42;8.45;;;4.53;;
76063;SDS011;64762;52.006;8.424;2023-03-18T08:51:08;13.13;;;4.32;;
76063;SDS011;64762;52.006;8.424;2023-03-18T08:53:33;8.93;;;4.70;;
76063;SDS011;64762;52.006;8.424;2023-03-18T08:55:59;14.30;;;6.00;;
76063;SDS011;64762;52.006;8.424;2023-03-18T08:58:26;10.45;;;5.20;;
76063;SDS011;64762;52.006;8.424;2023-03-18T09:00:53;12.00;;;5.30;;
76063;SDS011;64762;52.006;8.424;2023-03-18T09:03:19;20.52;;;6.53;;
76063;SDS011;64762;52.006;8.424;2023-03-18T09:05:46;13.95;;;5.80;;
76063;SDS011;64762;52.006;8.424;2023-03-18T09:08:12;16.23;;;7.07;;
76063;SDS011;64762;52.006;8.424;2023-03-18T09:10:38;14.02;;;6.32;;
76063;SDS011;64762;52.006;8.424;2023-03-18T09:13:03;11.93;;;6.70;;
76063;SDS011;64762;52.006;8.424;2023-03-18T09:15:29;15.57;;;6.13;;
76063;SDS011;64762;52.006;8.424;2023-03-18T09:17:55;11.95;;;5.72;;
76063;SDS011;64762;52.006;8.424;2023-03-18T09:20:20;13.03;;;6.13;;
76063;SDS011;64762;52.006;8.424;2023-03-18T09:22:46;13.95;;;6.82;;
76063;SDS011;64762;52.006;8.424;2023-03-18T09:25:11;20.87;;;6.80;;
76063;SDS011;64762;52.006;8.424;2023-03-18T09:27:37;14.30;;;6.70;;
76063;SDS011;64762;52.006;8.424;2023-03-18T09:30:03;14.67;;;6.07;;
76063;SDS011;64762;52.006;8.424;2023-03-18T09:32:29;15.52;;;7.05;;
76063;SDS011;64762;52.006;8.424;2023-03-18T09:34:54;18.25;;;6.63;;
76063;SDS011;64762;52.006;8.424;2023-03-18T09:37:19;11.37;;;5.97;;
76063;SDS011;64762;52.006;8.424;2023-03-18T09:39:45;15.02;;;6.30;;
76063;SDS011;64762;52.006;8.424;2023-03-18T09:45:15;15.10;;;6.15;;
76063;SDS011;64762;52.006;8.424;2023-03-18T09:47:53;12.32;;;5.47;;
76063;SDS011;64762;52.006;8.424;2023-03-18T09:52:51;11.90;;;5.80;;
76063;SDS011;64762;52.006;8.424;2023-03-18T10:01:08;10.35;;;6.38;;
76063;SDS011;64762;52.006;8.424;2023-03-18T10:06:40;12.95;;;5.88;;
76063;SDS011;64762;52.006;8.424;2023-03-18T10:09:08;15.65;;;5.90;;
76063;SDS011;64762;52.006;8.424;2023-03-18T10:11:49;10.27;;;5.05;;
76063;SDS011;64762;52.006;8.424;2023-03-18T10:14:19;10.50;;;5.93;;
76063;SDS011;64762;52.006;8.424;2023-03-18T10:16:58;11.70;;;5.78;;
76063;SDS011;64762;52.006;8.424;2023-03-18T10:22:06;10.37;;;5.23;;
76063;SDS011;64762;52.006;8.424;2023-03-18T10:27:32;13.75;;;6.10;;
76063;SDS011;64762;52.006;8.424;2023-03-18T10:35:37;12.82;;;5.45;;
76063;SDS011;64762;52.006;8.424;2023-03-18T10:41:00;13.85;;;6.32;;
76063;SDS011;64762;52.006;8.424;2023-03-18T10:43:27;13.88;;;6.05;;
76063;SDS011;64762;52.006;8.424;2023-03-18T10:45:59;14.05;;;6.25;;
76063;SDS011;64762;52.006;8.424;2023-03-18T10:48:27;10.00;;;5.65;;
76063;SDS011;64762;52.006;8.424;2023-03-18T10:51:10;12.20;;;7.00;;
76063;SDS011;64762;52.006;8.424;2023-03-18T10:53:44;10.93;;;5.75;;
76063;SDS011;64762;52.006;8.424;2023-03-18T10:56:15;13.43;;;5.95;;
76063;SDS011;64762;52.006;8.424;2023-03-18T10:58:41;10.03;;;5.17;;
76063;SDS011;64762;52.006;8.424;2023-03-18T11:01:08;11.85;;;5.70;;
76063;SDS011;64762;52.006;8.424;2023-03-18T11:03:36;9.07;;;5.63;;
76063;SDS011;64762;52.006;8.424;2023-03-18T11:06:05;8.15;;;4.82;;
76063;SDS011;64762;52.006;8.424;2023-03-18T11:08:40;13.15;;;5.22;;
76063;SDS011;64762;52.006;8.424;2023-03-18T11:16:22;7.85;;;4.57;;
76063;SDS011;64762;52.006;8.424;2023-03-18T11:18:53;9.63;;;3.67;;
76063;SDS011;64762;52.006;8.424;2023-03-18T11:21:19;7.45;;;3.50;;
76063;SDS011;64762;52.006;8.424;2023-03-18T11:23:48;7.77;;;3.60;;
76063;SDS011;64762;52.006;8.424;2023-03-18T11:26:51;5.88;;;3.25;;
76063;SDS011;64762;52.006;8.424;2023-03-18T11:29:24;7.88;;;3.47;;
76063;SDS011;64762;52.006;8.424;2023-03-18T11:31:54;6.55;;;3.17;;
76063;SDS011;64762;52.006;8.424;2023-03-18T11:34:31;7.10;;;3.33;;
76063;SDS011;64762;52.006;8.424;2023-03-18T11:36:58;6.85;;;3.60;;
76063;SDS011;64762;52.006;8.424;2023-03-18T11:39:26;14.00;;;5.10;;
76063;SDS011;64762;52.006;8.424;2023-03-18T11:41:53;9.30;;;2.70;;
76063;SDS011;64762;52.006;8.424;2023-03-18T11:44:29;4.18;;;2.33;;
76063;SDS011;64762;52.006;8.424;2023-03-18T11:47:07;8.63;;;3.22;;
76063;SDS011;64762;52.006;8.424;2023-03-18T11:49:38;7.30;;;2.88;;
76063;SDS011;64762;52.006;8.424;2023-03-18T11:58:00;6.32;;;3.42;;
76063;SDS011;64762;52.006;8.424;2023-03-18T12:00:47;7.82;;;3.53;;
76063;SDS011;64762;52.006;8.424;2023-03-18T12:06:21;6.07;;;3.20;;
76063;SDS011;64762;52.006;8.424;2023-03-18T12:14:44;5.43;;;3.17;;
76063;SDS011;64762;52.006;8.424;2023-03-18T12:17:18;6.55;;;3.00;;
76063;SDS011;64762;52.006;8.424;2023-03-18T12:20:03;6.13;;;2.95;;
76063;SDS011;64762;52.006;8.424;2023-03-18T12:22:57;5.35;;;3.40;;
76063;SDS011;64762;52.006;8.424;2023-03-18T12:28:17;5.93;;;2.80;;
76063;SDS011;64762;52.006;8.424;2023-03-18T12:47:19;4.97;;;2.60;;
76063;SDS011;64762;52.006;8.424;2023-03-18T12:50:11;4.32;;;3.22;;
76063;SDS011;64762;52.006;8.424;2023-03-18T12:57:49;4.80;;;2.53;;
76063;SDS011;64762;52.006;8.424;2023-03-18T13:02:59;4.80;;;2.80;;
76063;SDS011;64762;52.006;8.424;2023-03-18T13:08:20;4.50;;;2.10;;
76063;SDS011;64762;52.006;8.424;2023-03-18T13:10:49;3.70;;;2.10;;
76063;SDS011;64762;52.006;8.424;2023-03-18T13:13:18;5.50;;;2.47;;
76063;SDS011;64762;52.006;8.424;2023-03-18T13:15:50;7.82;;;3.20;;
76063;SDS011;64762;52.006;8.424;2023-03-18T13:18:23;4.90;;;2.70;;
76063;SDS011;64762;52.006;8.424;2023-03-18T13:20:52;4.57;;;2.72;;
76063;SDS011;64762;52.006;8.424;2023-03-18T13:29:16;5.05;;;2.90;;
76063;SDS011;64762;52.006;8.424;2023-03-18T13:35:04;5.22;;;2.88;;
76063;SDS011;64762;52.006;8.424;2023-03-18T13:42:55;6.60;;;2.60;;
76063;SDS011;64762;52.006;8.424;2023-03-18T13:47:59;6.07;;;2.78;;
76063;SDS011;64762;52.006;8.424;2023-03-18T13:50:39;4.90;;;3.15;;
76063;SDS011;64762;52.006;8.424;2023-03-18T13:53:24;4.47;;;2.65;;
76063;SDS011;64762;52.006;8.424;2023-03-18T13:56:02;5.63;;;3.13;;
76063;SDS011;64762;52.006;8.424;2023-03-18T14:13:41;5.68;;;2.90;;
76063;SDS011;64762;52.006;8.424;2023-03-18T14:16:10;5.75;;;3.08;;
76063;SDS011;64762;52.006;8.424;2023-03-18T14:21:02;5.55;;;3.20;;
76063;SDS011;64762;52.006;8.424;2023-03-18T14:26:26;6.88;;;3.58;;
76063;SDS011;64762;52.006;8.424;2023-03-18T14:31:32;5.43;;;3.50;;
76063;SDS011;64762;52.006;8.424;2023-03-18T14:37:25;7.82;;;3.50;;
76063;SDS011;64762;52.006;8.424;2023-03-18T14:39:31;5.85;;;3.25;;
76063;SDS011;64762;52.006;8.424;2023-03-18T14:42:00;6.53;;;3.10;;
76063;SDS011;64762;52.006;8.424;2023-03-18T14:44:46;5.30;;;2.97;;
76063;SDS011;64762;52.006;8.424;2023-03-18T14:47:18;5.93;;;3.20;;
76063;SDS011;64762;52.006;8.424;2023-03-18T14:49:47;5.35;;;2.80;;
76063;SDS011;64762;52.006;8.424;2023-03-18T14:52:32;7.32;;;3.33;;
76063;SDS011;64762;52.006;8.424;2023-03-18T14:55:00;7.18;;;2.83;;
76063;SDS011;64762;52.006;8.424;2023-03-18T14:57:31;5.63;;;3.03;;
76063;SDS011;64762;52.006;8.424;2023-03-18T14:59:59;6.23;;;2.93;;
76063;SDS011;64762;52.006;8.424;2023-03-18T15:02:31;6.60;;;3.00;;
76063;SDS011;64762;52.006;8.424;2023-03-18T15:04:58;6.75;;;2.72;;
76063;SDS011;64762;52.006;8.424;2023-03-18T15:07:35;6.28;;;2.67;;
76063;SDS011;64762;52.006;8.424;2023-03-18T15:10:03;5.28;;;2.88;;
76063;SDS011;64762;52.006;8.424;2023-03-18T15:12:34;5.15;;;2.50;;
76063;SDS011;64762;52.006;8.424;2023-03-18T15:15:01;4.60;;;2.22;;
76063;SDS011;64762;52.006;8.424;2023-03-18T15:17:27;4.65;;;2.63;;
76063;SDS011;64762;52.006;8.424;2023-03-18T15:19:56;5.72;;;3.22;;
76063;SDS011;64762;52.006;8.424;2023-03-18T15:22:22;6.88;;;3.13;;
76063;SDS011;64762;52.006;8.424;2023-03-18T15:24:51;5.18;;;2.42;;
76063;SDS011;64762;52.006;8.424;2023-03-18T15:27:19;4.85;;;2.30;;
76063;SDS011;64762;52.006;8.424;2023-03-18T15:32:23;3.90;;;2.08;;
76063;SDS011;64762;52.006;8.424;2023-03-18T15:34:53;5.57;;;2.33;;
76063;SDS011;64762;52.006;8.424;2023-03-18T15:39:54;4.78;;;2.67;;
76063;SDS011;64762;52.006;8.424;2023-03-18T15:42:22;9.63;;;4.18;;
76063;SDS011;64762;52.006;8.424;2023-03-18T15:45:06;6.10;;;2.90;;
76063;SDS011;64762;52.006;8.424;2023-03-18T15:47:34;5.57;;;3.28;;
76063;SDS011;64762;52.006;8.424;2023-03-18T15:50:00;6.88;;;2.80;;
76063;SDS011;64762;52.006;8.424;2023-03-18T15:52:34;5.10;;;2.22;;
76063;SDS011;64762;52.006;8.424;2023-03-18T15:55:19;5.82;;;2.60;;
76063;SDS011;64762;52.006;8.424;2023-03-18T15:57:52;6.20;;;2.25;;
76063;SDS011;64762;52.006;8.424;2023-03-18T16:00:18;6.03;;;2.20;;
76063;SDS011;64762;52.006;8.424;2023-03-18T16:02:44;4.60;;;2.00;;
76063;SDS011;64762;52.006;8.424;2023-03-18T16:05:43;3.90;;;1.70;;
76063;SDS011;64762;52.006;8.424;2023-03-18T16:08:02;3.83;;;2.03;;
76063;SDS011;64762;52.006;8.424;2023-03-18T16:10:27;5.23;;;1.80;;
76063;SDS011;64762;52.006;8.424;2023-03-18T16:12:53;4.27;;;1.90;;
76063;SDS011;64762;52.006;8.424;2023-03-18T16:15:21;5.97;;;1.88;;
76063;SDS011;64762;52.006;8.424;2023-03-18T16:17:48;3.75;;;1.85;;
76063;SDS011;64762;52.006;8.424;2023-03-18T16:20:16;5.15;;;2.33;;
76063;SDS011;64762;52.006;8.424;2023-03-18T16:22:44;5.97;;;2.20;;
76063;SDS011;64762;52.006;8.424;2023-03-18T16:25:10;4.20;;;1.90;;
76063;SDS011;64762;52.006;8.424;2023-03-18T16:27:39;4.25;;;2.30;;
76063;SDS011;64762;52.006;8.424;2023-03-18T16:32:31;5.07;;;2.85;;
76063;SDS011;64762;52.006;8.424;2023-03-18T16:34:56;7.03;;;2.50;;
76063;SDS011;64762;52.006;8.424;2023-03-18T16:37:23;4.35;;;2.50;;
76063;SDS011;64762;52.006;8.424;2023-03-18T16:39:50;6.47;;;3.08;;
76063;SDS011;64762;52.006;8.424;2023-03-18T16:42:18;5.00;;;3.00;;
76063;SDS011;64762;52.006;8.424;2023-03-18T16:44:44;4.88;;;2.60;;
76063;SDS011;64762;52.006;8.424;2023-03-18T16:47:15;5.27;;;2.60;;
76063;SDS011;64762;52.006;8.424;2023-03-18T16:52:10;4.23;;;2.00;;
76063;SDS011;64762;52.006;8.424;2023-03-18T16:54:36;5.25;;;2.20;;
76063;SDS011;64762;52.006;8.424;2023-03-18T16:57:01;7.67;;;2.40;;
76063;SDS011;64762;52.006;8.424;2023-03-18T16:59:29;4.82;;;2.20;;
76063;SDS011;64762;52.006;8.424;2023-03-18T17:01:55;4.53;;;2.20;;
76063;SDS011;64762;52.006;8.424;2023-03-18T17:04:25;4.50;;;2.30;;